Time;durP1;ratioP1;P1;durP2;ratioP2;P2;SDS_P1;SDS_P2;PMS_P1;PMS_P2;Temp;Humidity;BMP_temperature;BMP_pressure;BME280_temperature;BME280_humidity;BME280_pressure;Samples;Min_cycle;Max_cycle;Signal;HPM_P1;HPM_P2
2021/07/06 00:02:03;;;;;;;14.25;9.23;;;;;;;22.42;71.08;99850.06;4993337;28;20503;-73
2021/07/06 00:04:28;;;;;;;22.98;9.15;;;;;;;22.43;70.61;99841.97;5011605;28;20689;-73
2021/07/06 00:06:55;;;;;;;24.85;9.35;;;;;;;22.37;70.84;99853.00;4993348;28;20120;-74
2021/07/06 00:09:21;;;;;;;18.00;9.35;;;;;;;22.26;71.27;99853.63;5009290;28;20060;-73
2021/07/06 00:11:46;;;;;;;11.90;7.93;;;;;;;22.34;70.68;99855.88;5008771;28;20723;-74
2021/07/06 00:14:12;;;;;;;12.57;9.27;;;;;;;22.34;71.29;99850.53;4990494;28;20092;-73
2021/07/06 00:16:38;;;;;;;11.70;8.07;;;;;;;22.36;71.12;99842.41;4982763;28;20089;-73
2021/07/06 00:19:03;;;;;;;11.90;8.15;;;;;;;22.29;70.51;99842.78;4984620;28;20138;-73
2021/07/06 00:21:29;;;;;;;13.68;8.07;;;;;;;22.30;70.37;99847.16;4989688;28;20025;-74
2021/07/06 00:23:54;;;;;;;13.20;7.80;;;;;;;22.27;70.38;99844.66;4993480;28;20089;-74
2021/07/06 00:26:20;;;;;;;13.30;9.88;;;;;;;22.28;70.54;99850.88;5009603;28;20420;-74
2021/07/06 00:28:45;;;;;;;18.30;8.25;;;;;;;22.25;70.58;99841.22;5007395;28;20105;-73
2021/07/06 00:31:12;;;;;;;18.63;9.40;;;;;;;22.29;70.01;99845.44;4986627;28;20057;-74
2021/07/06 00:33:38;;;;;;;14.50;8.40;;;;;;;22.30;70.42;99840.97;4999918;28;20030;-74
2021/07/06 00:36:03;;;;;;;12.63;8.38;;;;;;;22.21;70.25;99842.34;5003148;28;20033;-73
2021/07/06 00:38:29;;;;;;;11.02;7.82;;;;;;;22.27;70.40;99842.00;5008278;28;20093;-73
2021/07/06 00:40:59;;;;;;;13.23;8.52;;;;;;;22.34;69.75;99837.16;4994480;28;20022;-74
2021/07/06 00:43:25;;;;;;;11.50;7.57;;;;;;;22.29;70.61;99839.25;5001779;28;20469;-74
2021/07/06 00:45:55;;;;;;;11.70;9.20;;;;;;;22.30;70.43;99833.78;4992108;28;20030;-74
2021/07/06 00:48:20;;;;;;;15.52;7.78;;;;;;;22.29;70.87;99840.09;4997783;28;20512;-74
2021/07/06 00:50:46;;;;;;;12.98;8.38;;;;;;;22.19;70.57;99835.34;5006739;28;20061;-73
2021/07/06 00:53:11;;;;;;;14.45;9.50;;;;;;;22.19;71.04;99838.84;5004662;28;20029;-73
2021/07/06 00:55:37;;;;;;;22.65;8.02;;;;;;;22.21;70.69;99842.34;4990565;28;20069;-74
2021/07/06 00:58:03;;;;;;;12.38;8.18;;;;;;;22.19;70.32;99836.19;5006095;28;20022;-74
2021/07/06 01:00:28;;;;;;;16.33;8.35;;;;;;;22.20;70.72;99839.75;4991352;28;20021;-74
2021/07/06 01:02:54;;;;;;;16.15;9.60;;;;;;;22.23;70.70;99839.59;5005490;28;20025;-74
2021/07/06 01:05:24;;;;;;;14.60;7.80;;;;;;;22.21;70.92;99845.00;5003491;28;20085;-73
2021/07/06 01:07:50;;;;;;;11.65;8.13;;;;;;;22.17;70.35;99840.75;4998860;28;20085;-73
2021/07/06 01:10:17;;;;;;;18.42;9.73;;;;;;;22.21;71.26;99841.47;4985109;28;20083;-73
2021/07/06 01:12:44;;;;;;;14.27;9.85;;;;;;;22.13;70.95;99842.75;4992251;28;20022;-73
2021/07/06 01:15:15;;;;;;;13.15;8.75;;;;;;;22.00;71.17;99854.22;5004039;28;20033;-73
2021/07/06 01:17:43;;;;;;;13.95;9.40;;;;;;;22.07;71.29;99855.59;5007767;28;20037;-73
2021/07/06 01:20:21;;;;;;;11.43;8.18;;;;;;;22.07;71.35;99855.59;5008361;28;20080;-73
2021/07/06 01:22:47;;;;;;;12.85;8.38;;;;;;;22.09;71.28;99851.88;4981112;28;20041;-73
2021/07/06 01:25:13;;;;;;;20.80;8.60;;;;;;;22.13;71.04;99850.78;5001559;28;20023;-73
2021/07/06 01:27:40;;;;;;;16.85;8.73;;;;;;;22.21;71.29;99849.50;5002525;28;20444;-73
2021/07/06 01:30:08;;;;;;;15.82;8.82;;;;;;;22.13;70.61;99853.44;4990343;28;20026;-73
2021/07/06 01:32:34;;;;;;;13.45;8.93;;;;;;;22.12;70.67;99856.19;4986880;28;20516;-73
2021/07/06 01:35:00;;;;;;;14.77;8.93;;;;;;;22.03;71.15;99846.03;4982242;28;20049;-73
2021/07/06 01:37:25;;;;;;;29.75;10.02;;;;;;;22.06;71.10;99853.88;5003583;28;20105;-71
2021/07/06 01:39:51;;;;;;;13.80;8.38;;;;;;;22.02;71.06;99855.00;4980296;28;20057;-73
2021/07/06 01:42:18;;;;;;;17.50;7.85;;;;;;;22.01;71.47;99858.59;5003189;28;20430;-71
2021/07/06 01:44:44;;;;;;;14.25;9.57;;;;;;;22.03;71.09;99859.38;5002897;28;20120;-71
2021/07/06 01:47:10;;;;;;;18.17;8.63;;;;;;;21.95;70.93;99858.97;5014723;28;20482;-71
2021/07/06 01:49:36;;;;;;;13.25;9.10;;;;;;;22.04;71.09;99858.44;4998652;28;20040;-71
2021/07/06 01:52:01;;;;;;;15.18;9.38;;;;;;;22.02;71.28;99863.88;5025475;28;20021;-71
2021/07/06 01:54:27;;;;;;;15.27;8.00;;;;;;;21.97;71.02;99862.41;5009845;28;20025;-71
2021/07/06 01:56:52;;;;;;;14.25;9.00;;;;;;;21.86;71.25;99868.34;5011480;28;20029;-71
2021/07/06 01:59:18;;;;;;;19.65;7.97;;;;;;;21.86;71.36;99866.53;5025903;28;24081;-71
2021/07/06 02:01:45;;;;;;;15.95;8.68;;;;;;;21.97;71.76;99870.44;5028782;28;20032;-71
2021/07/06 02:04:14;;;;;;;12.77;8.35;;;;;;;21.99;71.31;99872.06;4994695;28;20032;-72
2021/07/06 02:06:39;;;;;;;24.83;8.95;;;;;;;21.95;71.40;99877.66;5023670;28;20673;-71
2021/07/06 02:09:05;;;;;;;10.18;7.88;;;;;;;22.00;71.32;99880.94;5022099;28;20033;-71
2021/07/06 02:11:34;;;;;;;14.32;8.73;;;;;;;21.93;71.63;99880.41;5019026;28;20036;-72
2021/07/06 02:14:01;;;;;;;13.88;9.30;;;;;;;21.88;72.03;99874.47;5028889;28;20374;-73
2021/07/06 02:16:26;;;;;;;13.27;9.43;;;;;;;21.93;71.33;99870.59;5008225;28;20029;-71
2021/07/06 02:18:52;;;;;;;12.05;7.70;;;;;;;21.93;71.89;99867.91;5000356;28;20083;-71
2021/07/06 02:21:18;;;;;;;13.13;7.85;;;;;;;21.96;71.76;99872.25;5006729;28;20041;-74
2021/07/06 02:23:46;;;;;;;13.73;8.52;;;;;;;22.02;71.40;99876.38;5001272;28;20514;-73
2021/07/06 02:26:12;;;;;;;17.63;7.47;;;;;;;21.89;72.11;99870.84;5029484;28;20014;-73
2021/07/06 02:28:37;;;;;;;14.43;9.25;;;;;;;21.92;70.96;99873.34;5008833;28;20112;-73
2021/07/06 02:31:04;;;;;;;10.90;7.47;;;;;;;21.90;71.51;99869.91;5030179;28;20373;-74
2021/07/06 02:33:33;;;;;;;9.95;7.85;;;;;;;21.87;71.37;99878.09;5004174;28;20053;-73
2021/07/06 02:36:00;;;;;;;18.02;8.80;;;;;;;21.93;72.05;99877.75;5008739;28;20027;-73
2021/07/06 02:38:26;;;;;;;13.73;7.70;;;;;;;21.87;71.34;99876.28;5024808;28;20724;-73
2021/07/06 02:40:51;;;;;;;12.15;8.80;;;;;;;21.88;71.21;99878.00;5009900;28;20120;-73
2021/07/06 02:43:17;;;;;;;16.23;8.80;;;;;;;21.90;71.66;99880.59;5010732;28;20033;-73
2021/07/06 02:45:42;;;;;;;10.18;7.32;;;;;;;21.94;71.87;99876.81;5007778;28;20069;-74
2021/07/06 02:48:09;;;;;;;10.70;7.18;;;;;;;21.99;71.11;99890.78;5023644;28;20069;-73
2021/07/06 02:50:36;;;;;;;12.30;8.30;;;;;;;21.93;70.98;99881.28;5008882;28;20037;-73
2021/07/06 02:53:02;;;;;;;13.98;7.05;;;;;;;21.87;71.15;99883.44;5027140;28;20116;-73
2021/07/06 02:55:27;;;;;;;11.52;7.55;;;;;;;21.74;71.60;99888.59;5013817;28;20116;-72
2021/07/06 02:57:54;;;;;;;12.95;7.95;;;;;;;21.82;71.88;99882.81;5026527;28;20017;-72
2021/07/06 03:00:26;;;;;;;13.90;8.57;;;;;;;21.73;71.54;99884.19;5006675;28;20036;-72
2021/07/06 03:03:00;;;;;;;12.13;8.30;;;;;;;21.75;71.51;99881.44;5018823;28;20029;-71
2021/07/06 03:05:31;;;;;;;14.50;8.93;;;;;;;21.82;71.91;99890.81;5000778;28;20038;-71
2021/07/06 03:07:57;;;;;;;15.27;8.32;;;;;;;21.76;72.29;99883.16;5030991;28;20021;-71
2021/07/06 03:10:25;;;;;;;17.75;8.63;;;;;;;21.76;71.85;99877.81;5021447;28;20160;-70
2021/07/06 03:12:51;;;;;;;17.85;9.57;;;;;;;21.82;71.89;99882.81;5023668;28;20025;-71
2021/07/06 03:15:18;;;;;;;11.13;7.80;;;;;;;21.83;71.51;99887.22;5025885;28;20281;-71
2021/07/06 03:17:44;;;;;;;14.23;10.10;;;;;;;21.90;71.25;99888.59;5016383;28;20079;-71
2021/07/06 03:20:11;;;;;;;15.20;8.50;;;;;;;21.92;71.84;99876.03;5006462;28;20064;-71
2021/07/06 03:22:37;;;;;;;16.38;9.73;;;;;;;21.75;71.96;99882.31;5011213;28;20511;-71
2021/07/06 03:25:05;;;;;;;12.65;8.50;;;;;;;21.80;71.96;99879.38;5028739;28;20025;-71
2021/07/06 03:27:30;;;;;;;14.73;9.02;;;;;;;21.84;72.36;99889.78;4999454;28;20049;-72
2021/07/06 03:29:56;;;;;;;19.10;9.13;;;;;;;21.80;72.18;99895.41;5005849;28;20492;-72
2021/07/06 03:32:21;;;;;;;21.33;9.40;;;;;;;21.83;72.34;99892.56;5025800;28;20029;-71
2021/07/06 03:34:52;;;;;;;15.10;9.27;;;;;;;21.71;72.37;99894.97;5026501;28;20029;-72
2021/07/06 03:37:18;;;;;;;14.70;9.55;;;;;;;21.76;72.55;99891.19;5032068;28;20040;-72
2021/07/06 03:39:43;;;;;;;13.55;8.75;;;;;;;21.80;72.20;99893.59;5025420;28;20025;-72
2021/07/06 03:42:10;;;;;;;12.52;9.00;;;;;;;21.85;72.13;99890.69;5023239;28;20029;-72
2021/07/06 03:44:35;;;;;;;14.52;9.82;;;;;;;21.84;72.16;99886.25;5011592;28;20409;-71
2021/07/06 03:47:02;;;;;;;14.98;8.50;;;;;;;21.67;72.39;99892.53;5007467;28;20049;-72
2021/07/06 03:49:28;;;;;;;19.10;8.45;;;;;;;21.67;72.46;99890.72;5026398;28;20113;-70
2021/07/06 03:51:53;;;;;;;14.32;8.80;;;;;;;21.73;72.70;99883.31;5020869;28;20109;-71
2021/07/06 03:54:19;;;;;;;11.00;7.68;;;;;;;21.83;72.29;99879.22;5004366;28;20025;-71
2021/07/06 03:56:44;;;;;;;16.70;9.57;;;;;;;21.86;72.16;99877.22;5024112;28;20030;-71
2021/07/06 03:59:10;;;;;;;16.48;9.23;;;;;;;21.93;72.51;99889.28;5022468;28;20688;-71
2021/07/06 04:01:36;;;;;;;18.30;8.50;;;;;;;21.85;72.37;99890.69;5022675;28;20036;-70
2021/07/06 04:04:03;;;;;;;14.98;9.30;;;;;;;21.90;72.77;99884.13;5012166;28;20025;-71
2021/07/06 04:06:28;;;;;;;14.27;8.57;;;;;;;21.93;72.64;99881.28;5011167;28;20025;-71
2021/07/06 04:08:54;;;;;;;11.65;7.88;;;;;;;22.00;73.17;99892.47;5006869;28;20037;-72
2021/07/06 04:11:19;;;;;;;13.20;8.25;;;;;;;22.15;71.81;99898.81;5014896;28;20092;-72
2021/07/06 04:13:45;;;;;;;16.00;9.13;;;;;;;22.21;72.06;99894.94;5022498;28;20022;-72
2021/07/06 04:16:10;;;;;;;9.38;7.28;;;;;;;22.22;71.85;99896.66;5004110;28;20087;-73
2021/07/06 04:18:36;;;;;;;11.98;7.45;;;;;;;22.32;71.47;99896.06;5025480;28;20025;-73
2021/07/06 04:21:04;;;;;;;12.70;8.93;;;;;;;22.34;71.38;99909.34;5007127;28;20036;-71
2021/07/06 04:23:29;;;;;;;13.68;8.55;;;;;;;22.40;71.71;99908.97;5011878;28;20030;-71
2021/07/06 04:25:55;;;;;;;10.15;7.85;;;;;;;22.45;71.52;99908.72;5025525;28;20029;-72
2021/07/06 04:28:20;;;;;;;12.55;8.07;;;;;;;22.55;71.58;99915.28;4995566;28;20033;-71
2021/07/06 04:30:46;;;;;;;11.05;8.35;;;;;;;22.55;71.46;99912.59;5010718;28;20057;-71
2021/07/06 04:33:11;;;;;;;14.65;8.20;;;;;;;22.55;72.54;99912.59;5020285;28;20026;-72
2021/07/06 04:35:37;;;;;;;13.27;8.35;;;;;;;22.55;72.18;99917.94;5022042;28;20029;-74
2021/07/06 04:38:02;;;;;;;17.20;8.07;;;;;;;22.67;71.14;99917.22;5025726;28;20033;-73
2021/07/06 04:40:28;;;;;;;11.82;8.77;;;;;;;22.75;71.82;99928.31;5026182;28;20792;-74
2021/07/06 04:42:55;;;;;;;13.15;8.45;;;;;;;22.78;71.76;99927.31;5025454;28;20021;-74
2021/07/06 04:45:20;;;;;;;10.88;8.05;;;;;;;22.92;71.30;99924.69;5027021;28;20076;-73
2021/07/06 04:47:46;;;;;;;10.32;8.05;;;;;;;23.05;71.13;99932.00;5028302;28;20499;-73
2021/07/06 04:50:13;;;;;;;12.43;7.85;;;;;;;23.16;70.54;99935.78;5027486;28;20029;-87
2021/07/06 04:52:43;;;;;;;14.15;8.63;;;;;;;23.25;69.92;99929.00;5014236;28;20038;-88
2021/07/06 04:55:09;;;;;;;18.15;9.05;;;;;;;23.33;69.54;99939.25;5013041;28;20112;-83
2021/07/06 04:57:35;;;;;;;10.93;6.72;;;;;;;23.33;69.45;99940.09;4980964;28;20175;-76
2021/07/06 05:00:00;;;;;;;16.02;9.02;;;;;;;23.49;69.00;99937.34;5010722;28;20074;-77
2021/07/06 05:02:26;;;;;;;11.52;6.85;;;;;;;23.60;68.40;99937.56;5025584;28;20053;-76
2021/07/06 05:04:52;;;;;;;11.40;7.88;;;;;;;23.69;67.25;99938.78;5001530;28;20180;-78
2021/07/06 05:07:17;;;;;;;11.38;7.13;;;;;;;23.77;67.89;99938.38;5005876;28;20030;-77
2021/07/06 05:09:46;;;;;;;14.25;7.20;;;;;;;23.92;66.61;99940.06;5003355;28;20518;-79
2021/07/06 05:12:11;;;;;;;16.90;7.10;;;;;;;24.10;66.40;99946.09;4992721;28;20109;-80
2021/07/06 05:14:37;;;;;;;11.27;8.52;;;;;;;24.08;66.49;99950.69;5026232;28;20022;-83
2021/07/06 05:17:03;;;;;;;11.65;8.13;;;;;;;24.32;65.20;99955.44;4997620;28;20045;-89
2021/07/06 05:19:28;;;;;;;14.05;7.47;;;;;;;24.37;64.72;99950.63;5025047;28;20029;-87
2021/07/06 05:21:54;;;;;;;10.13;6.88;;;;;;;24.50;64.32;99959.63;5017610;28;20107;-85
2021/07/06 05:24:19;;;;;;;10.80;6.70;;;;;;;24.63;64.81;99962.38;5030430;28;20017;-88
2021/07/06 05:26:45;;;;;;;15.60;8.60;;;;;;;24.71;63.72;99959.19;5018916;28;20025;-88
2021/07/06 05:29:16;;;;;;;27.20;7.30;;;;;;;24.72;62.69;99960.91;5007164;28;20079;-89
2021/07/06 05:31:41;;;;;;;8.40;7.15;;;;;;;24.76;63.35;99971.34;5022156;28;20080;-88
2021/07/06 05:34:07;;;;;;;12.68;6.55;;;;;;;24.73;63.20;99974.22;5019819;28;20448;-78
2021/07/06 05:36:33;;;;;;;15.38;5.65;;;;;;;24.84;63.18;99977.06;5026333;28;20060;-77
2021/07/06 05:38:58;;;;;;;14.20;7.15;;;;;;;24.96;64.57;99978.06;5007419;28;20048;-77
2021/07/06 05:41:24;;;;;;;12.77;7.55;;;;;;;24.91;64.20;99980.22;5022900;28;20053;-78
2021/07/06 05:43:50;;;;;;;11.13;7.43;;;;;;;24.91;63.12;99979.31;5007827;28;20393;-77
2021/07/06 05:46:15;;;;;;;13.07;7.40;;;;;;;24.95;65.04;99983.53;5027712;28;20086;-78
2021/07/06 05:48:41;;;;;;;10.27;6.68;;;;;;;24.91;65.29;99982.91;4998227;28;20084;-88
2021/07/06 05:51:07;;;;;;;12.20;7.20;;;;;;;24.91;64.22;99990.94;4993138;28;20409;-89
2021/07/06 05:53:35;;;;;;;19.48;6.85;;;;;;;24.80;64.91;99996.16;4984952;28;20045;-88
2021/07/06 05:56:01;;;;;;;8.65;5.60;;;;;;;24.77;64.90;99993.66;5009326;28;20023;-87
2021/07/06 05:58:27;;;;;;;8.95;5.93;;;;;;;24.79;64.36;99991.75;5009501;28;20033;-88
2021/07/06 06:00:52;;;;;;;9.05;6.88;;;;;;;24.79;65.33;99997.97;5006451;28;20505;-78
2021/07/06 06:03:17;;;;;;;15.60;7.70;;;;;;;24.83;64.18;99999.50;5004493;28;20029;-77
2021/07/06 06:05:43;;;;;;;13.73;7.03;;;;;;;24.87;64.00;100002.84;5000017;28;20018;-78
2021/07/06 06:08:14;;;;;;;8.68;7.03;;;;;;;24.88;64.13;99998.34;5003790;28;20116;-78
2021/07/06 06:10:39;;;;;;;12.80;6.95;;;;;;;24.88;63.79;100006.38;5004094;28;20105;-78
2021/07/06 06:13:05;;;;;;;21.52;8.32;;;;;;;24.76;63.33;100006.22;4984594;28;20125;-78
2021/07/06 06:15:34;;;;;;;14.25;7.78;;;;;;;24.82;62.37;100010.34;4999798;28;20052;-77
2021/07/06 06:18:01;;;;;;;13.75;7.43;;;;;;;24.88;62.16;100004.56;5005229;28;20505;-78
2021/07/06 06:20:28;;;;;;;10.23;6.38;;;;;;;24.95;60.59;100016.59;4985919;28;20022;-76
2021/07/06 06:22:54;;;;;;;13.90;7.53;;;;;;;24.80;60.37;100013.13;4971224;28;21337;-78
2021/07/06 06:25:19;;;;;;;11.55;6.85;;;;;;;24.82;60.49;100018.41;5003171;28;20096;-77
2021/07/06 06:27:45;;;;;;;12.60;7.70;;;;;;;24.88;59.42;100022.50;4990291;28;20022;-77
2021/07/06 06:30:11;;;;;;;8.38;5.95;;;;;;;24.98;59.10;100015.53;5004039;28;20026;-78
2021/07/06 06:32:37;;;;;;;6.80;5.18;;;;;;;24.98;58.96;100008.38;4981095;28;20390;-78
2021/07/06 06:35:04;;;;;;;9.77;6.28;;;;;;;25.15;58.58;100009.06;5000095;28;20033;-77
2021/07/06 06:37:29;;;;;;;10.95;5.07;;;;;;;25.26;59.21;100011.91;5006926;28;20050;-77
2021/07/06 06:39:55;;;;;;;9.30;6.57;;;;;;;25.39;59.67;100011.94;4988212;28;20074;-77
2021/07/06 06:42:20;;;;;;;10.43;7.32;;;;;;;25.37;59.29;100005.81;5005915;28;20034;-78
2021/07/06 06:44:46;;;;;;;11.35;6.45;;;;;;;25.28;58.69;100008.16;5010771;28;20362;-78
2021/07/06 06:47:15;;;;;;;8.07;5.47;;;;;;;25.13;58.86;100006.47;4993715;28;20493;-78
2021/07/06 06:49:40;;;;;;;8.57;6.15;;;;;;;25.09;58.81;100012.16;5020649;28;20041;-78
2021/07/06 06:52:06;;;;;;;13.40;6.93;;;;;;;25.23;57.63;100017.50;5005752;28;20477;-78
2021/07/06 06:54:33;;;;;;;12.77;5.70;;;;;;;25.28;59.23;100012.66;5024585;28;20022;-78
2021/07/06 06:56:59;;;;;;;9.85;5.55;;;;;;;25.49;58.05;100019.25;5008277;28;20554;-78
2021/07/06 06:59:25;;;;;;;15.60;5.80;;;;;;;25.78;57.13;100019.09;4994930;28;20073;-90
2021/07/06 07:02:16;;;;;;;9.82;6.65;;;;;;;26.08;55.59;100017.91;5015396;28;20041;-90
2021/07/06 07:04:36;;;;;;;10.90;7.03;;;;;;;26.26;55.78;100011.22;5039493;28;20029;-89
2021/07/06 07:07:02;;;;;;;11.40;5.53;;;;;;;26.49;53.97;100016.78;5023741;28;20039;-88
2021/07/06 07:09:30;;;;;;;10.60;5.47;;;;;;;26.58;53.54;100015.28;5029019;28;20025;-89
2021/07/06 07:11:56;;;;;;;11.18;5.93;;;;;;;26.51;53.53;100020.22;4997175;28;20529;-90
2021/07/06 07:14:21;;;;;;;6.22;4.80;;;;;;;26.51;53.38;100023.75;5031563;28;20025;-90
2021/07/06 07:16:48;;;;;;;6.22;5.35;;;;;;;26.64;52.54;100021.06;5020756;28;20083;-88
2021/07/06 07:19:13;;;;;;;7.28;4.80;;;;;;;26.86;52.85;100012.28;5030131;28;20751;-88
2021/07/06 07:21:39;;;;;;;9.77;5.97;;;;;;;26.92;51.21;100016.31;5005800;28;20032;-88
2021/07/06 07:24:05;;;;;;;8.05;5.65;;;;;;;27.19;51.64;100021.47;5012512;28;20392;-89
2021/07/06 07:26:30;;;;;;;13.73;5.35;;;;;;;27.19;50.39;100018.78;5021470;28;20033;-88
2021/07/06 07:29:01;;;;;;;7.00;4.93;;;;;;;26.98;49.98;100021.25;5020736;28;20026;-89
2021/07/06 07:31:27;;;;;;;6.70;4.53;;;;;;;27.12;49.40;100018.38;5026429;28;20025;-90
2021/07/06 07:33:52;;;;;;;8.77;5.15;;;;;;;27.20;51.31;100015.13;4997067;28;20088;-91
2021/07/06 07:36:21;;;;;;;8.10;4.90;;;;;;;27.16;50.33;100014.50;5005547;28;20029;-90
2021/07/06 07:38:47;;;;;;;11.30;5.65;;;;;;;27.32;49.56;100019.63;5023749;28;20028;-90
2021/07/06 07:41:12;;;;;;;7.93;5.45;;;;;;;27.29;48.75;100029.75;5031419;28;20124;-89
2021/07/06 07:43:37;;;;;;;6.47;4.80;;;;;;;27.36;49.64;100031.00;5028103;28;20060;-89
2021/07/06 07:46:03;;;;;;;11.63;6.65;;;;;;;27.54;48.90;100018.81;5023912;28;20022;-87
2021/07/06 07:48:29;;;;;;;11.70;4.80;;;;;;;27.52;48.49;100020.78;4991451;28;20498;-88
2021/07/06 07:50:54;;;;;;;8.80;5.78;;;;;;;27.60;48.42;100014.78;5024097;28;20517;-89
2021/07/06 07:53:19;;;;;;;13.73;6.05;;;;;;;27.74;48.91;100025.34;5020969;28;20080;-88
2021/07/06 07:55:45;;;;;;;13.18;6.32;;;;;;;27.79;49.22;100023.16;5009487;28;20466;-88
2021/07/06 07:58:11;;;;;;;7.53;4.72;;;;;;;27.93;48.82;100022.13;5039596;28;20025;-90
2021/07/06 08:00:36;;;;;;;20.27;5.70;;;;;;;28.12;49.77;100024.22;5017815;28;20124;-90
2021/07/06 08:03:02;;;;;;;9.20;5.70;;;;;;;28.24;47.47;100033.16;5037446;28;20029;-77
2021/07/06 08:05:28;;;;;;;8.65;6.38;;;;;;;28.09;47.37;100032.53;5007345;28;20060;-79
2021/07/06 08:07:54;;;;;;;12.75;5.43;;;;;;;28.17;48.00;100035.50;5000415;28;20029;-77
2021/07/06 08:10:19;;;;;;;13.95;5.65;;;;;;;28.20;47.35;100027.16;4997442;28;20161;-78
2021/07/06 08:12:45;;;;;;;7.63;5.32;;;;;;;27.99;48.17;100029.72;5025956;28;20115;-79
2021/07/06 08:15:10;;;;;;;11.43;6.13;;;;;;;28.16;48.76;100022.13;5022840;28;20061;-77
2021/07/06 08:17:36;;;;;;;7.18;4.63;;;;;;;28.53;48.41;100038.09;5001692;28;20030;-77
2021/07/06 08:20:02;;;;;;;6.05;5.00;;;;;;;28.29;48.47;100030.94;5007754;28;20481;-79
2021/07/06 08:22:28;;;;;;;8.10;5.65;;;;;;;28.59;48.87;100035.75;5001546;28;20026;-79
2021/07/06 08:24:54;;;;;;;7.63;4.30;;;;;;;28.84;49.44;100036.41;5004417;28;20401;-78
2021/07/06 08:27:19;;;;;;;6.53;5.03;;;;;;;29.01;48.04;100035.91;4998801;28;20311;-76
2021/07/06 08:29:46;;;;;;;7.65;5.13;;;;;;;29.22;47.42;100027.88;5034206;28;20037;-78
2021/07/06 08:32:11;;;;;;;7.57;6.22;;;;;;;29.23;48.49;100032.28;5022156;28;20053;-78
2021/07/06 08:34:37;;;;;;;9.70;5.25;;;;;;;29.43;47.33;100027.91;5003396;28;20065;-79
2021/07/06 08:37:02;;;;;;;13.27;6.00;;;;;;;29.45;45.05;100036.72;5039336;28;20026;-78
2021/07/06 08:39:28;;;;;;;9.75;5.88;;;;;;;29.50;45.98;100035.47;5026974;28;20057;-89
2021/07/06 08:41:54;;;;;;;7.28;4.95;;;;;;;29.17;44.29;100043.63;5037156;28;20468;-89
2021/07/06 08:44:21;;;;;;;16.83;4.90;;;;;;;29.33;45.93;100035.06;5011410;28;20454;-89
2021/07/06 08:46:48;;;;;;;6.95;5.00;;;;;;;29.09;44.94;100040.69;5034551;28;20041;-89
2021/07/06 08:49:15;;;;;;;9.68;5.00;;;;;;;29.03;44.19;100038.44;5029237;28;20614;-89
2021/07/06 08:51:42;;;;;;;15.68;5.25;;;;;;;29.19;44.72;100040.75;5023287;28;20036;-90
2021/07/06 08:54:08;;;;;;;10.82;6.13;;;;;;;29.23;44.21;100034.97;5006682;28;20128;-78
2021/07/06 08:56:33;;;;;;;8.25;5.80;;;;;;;28.98;44.20;100052.34;5006742;28;20102;-79
2021/07/06 08:58:59;;;;;;;12.65;6.60;;;;;;;29.33;45.01;100037.75;5020657;28;20145;-78
2021/07/06 09:01:26;;;;;;;11.75;4.95;;;;;;;29.60;43.15;100036.41;5019013;28;20032;-77
2021/07/06 09:04:03;;;;;;;8.30;5.45;;;;;;;29.13;43.51;100044.00;5022353;28;20064;-78
2021/07/06 09:06:34;;;;;;;8.77;5.63;;;;;;;29.45;44.28;100034.03;4994220;28;20163;-78
2021/07/06 09:09:17;;;;;;;10.00;5.47;;;;;;;29.74;42.09;100035.25;4989691;28;20064;-77
2021/07/06 09:11:44;;;;;;;;;;;;;;;29.50;42.97;100039.06;5009582;28;20066;-78
2021/07/06 09:14:10;;;;;;;11.05;6.80;;;;;;;29.73;43.24;100033.53;5011855;28;19917;-89
2021/07/06 09:16:35;;;;;;;8.40;6.03;;;;;;;29.42;42.80;100036.13;4995156;28;20116;-90
2021/07/06 09:19:24;;;;;;;13.93;6.22;;;;;;;29.81;43.17;100036.44;5019769;28;20058;-90
2021/07/06 09:22:31;;;;;;;11.18;6.35;;;;;;;29.49;42.93;100045.44;4994008;28;20026;-78
2021/07/06 09:25:03;;;;;;;10.85;5.68;;;;;;;30.15;41.99;100044.28;4955563;28;20030;-78
2021/07/06 09:27:36;;;;;;;11.55;5.40;;;;;;;29.60;41.55;100041.81;4953539;28;20125;-79
2021/07/06 09:30:19;;;;;;;9.27;4.43;;;;;;;29.18;43.09;100049.88;4965505;28;20071;-79
2021/07/06 09:32:55;;;;;;;6.53;4.85;;;;;;;29.29;43.11;100048.94;5005454;28;20074;-76
2021/07/06 09:35:24;;;;;;;8.13;5.13;;;;;;;29.64;42.45;100054.06;5013108;28;20034;-77
2021/07/06 09:37:58;;;;;;;10.65;6.40;;;;;;;30.12;42.04;100056.25;4993087;28;20120;-78
2021/07/06 09:40:32;;;;;;;7.10;4.93;;;;;;;30.05;42.27;100057.78;5006840;28;20033;-78
2021/07/06 09:43:17;;;;;;;9.07;5.40;;;;;;;30.06;41.59;100057.66;5029442;28;20032;-78
2021/07/06 09:45:47;;;;;;;10.90;6.05;;;;;;;30.14;41.82;100051.56;5026499;28;20078;-78
2021/07/06 09:48:13;;;;;;;8.48;5.82;;;;;;;30.18;43.04;100054.84;5025686;28;20104;-77
2021/07/06 09:50:39;;;;;;;8.80;4.78;;;;;;;30.38;41.84;100042.28;5003808;28;20030;-78
2021/07/06 09:53:05;;;;;;;8.30;5.30;;;;;;;30.82;41.29;100049.13;5008139;28;20596;-78
2021/07/06 09:55:31;;;;;;;7.35;5.22;;;;;;;31.04;41.21;100053.47;5021540;28;20034;-79
2021/07/06 09:57:57;;;;;;;10.88;6.25;;;;;;;30.52;42.37;100060.88;5018753;28;20427;-78
2021/07/06 10:00:24;;;;;;;7.97;5.53;;;;;;;30.56;41.65;100045.22;5024866;28;20033;-77
2021/07/06 10:02:59;;;;;;;10.63;5.35;;;;;;;30.64;41.90;100059.75;5005008;28;20103;-78
2021/07/06 10:05:25;;;;;;;8.00;5.35;;;;;;;30.51;42.06;100056.47;4995403;28;20026;-77
2021/07/06 10:07:50;;;;;;;6.90;5.03;;;;;;;31.08;42.52;100054.06;5009204;28;20543;-79
2021/07/06 10:10:16;;;;;;;8.32;5.60;;;;;;;30.64;41.41;100058.91;5020113;28;20087;-77
2021/07/06 10:12:46;;;;;;;6.50;5.28;;;;;;;30.70;41.27;100058.38;5032588;28;20027;-78
2021/07/06 10:15:13;;;;;;;9.35;5.43;;;;;;;29.98;41.65;100060.16;5001566;28;20025;-77
2021/07/06 10:17:39;;;;;;;6.80;5.25;;;;;;;30.27;41.51;100059.47;5019331;28;20071;-78
2021/07/06 10:20:09;;;;;;;7.40;4.65;;;;;;;30.95;41.02;100061.59;5001085;28;20017;-78
2021/07/06 10:22:35;;;;;;;9.98;6.07;;;;;;;31.20;39.74;100061.03;5013569;28;20029;-78
2021/07/06 10:25:03;;;;;;;8.35;5.60;;;;;;;30.71;40.92;100073.63;4997792;28;20553;-77
2021/07/06 10:27:32;;;;;;;9.48;5.50;;;;;;;30.99;41.26;100063.88;5000651;28;20029;-79
2021/07/06 10:30:23;;;;;;;13.98;5.18;;;;;;;31.22;39.69;100071.75;4999140;28;20025;-78
2021/07/06 10:32:54;;;;;;;13.05;5.30;;;;;;;30.95;40.93;100065.16;5002615;28;20068;-78
2021/07/06 10:35:40;;;;;;;9.63;6.85;;;;;;;30.90;39.62;100064.72;4984717;28;20060;-78
2021/07/06 10:38:33;;;;;;;11.50;5.75;;;;;;;31.21;41.38;100065.50;5015917;28;20094;-78
2021/07/06 10:40:58;;;;;;;;;;;;;;;30.88;41.42;100056.75;5006231;28;20021;-77
2021/07/06 10:43:32;;;;;;;7.20;5.27;;;;;;;30.89;40.04;100057.59;5025759;28;20447;-78
2021/07/06 10:46:31;;;;;;;6.95;5.50;;;;;;;30.83;40.51;100060.81;5002509;28;20453;-89
2021/07/06 10:48:58;;;;;;;8.20;4.18;;;;;;;30.34;40.50;100068.78;4990389;28;20366;-91
2021/07/06 10:51:33;;;;;;;7.57;5.25;;;;;;;31.27;39.58;100064.06;5009073;28;20501;-89
2021/07/06 10:54:14;;;;;;;6.47;4.30;;;;;;;30.52;39.79;100063.59;4999612;28;20536;-89
2021/07/06 10:57:06;;;;;;;7.03;4.80;;;;;;;30.68;40.66;100054.94;4995516;28;20038;-77
2021/07/06 10:59:31;;;;;;;7.55;4.55;;;;;;;30.60;40.80;100060.19;4998627;28;20501;-78
2021/07/06 11:02:20;;;;;;;6.63;4.38;;;;;;;30.59;39.33;100067.47;4995101;28;20133;-78
2021/07/06 11:04:46;;;;;;;11.52;5.60;;;;;;;30.58;40.08;100056.75;4987478;28;20013;-78
2021/07/06 11:07:13;;;;;;;6.28;5.03;;;;;;;30.97;39.21;100060.44;4987366;28;20045;-79
2021/07/06 11:09:38;;;;;;;9.25;5.57;;;;;;;31.06;39.67;100050.63;4982917;28;20026;-78
2021/07/06 11:12:32;;;;;;;7.78;5.57;;;;;;;31.18;39.66;100052.19;5012042;28;20030;-77
2021/07/06 11:14:59;;;;;;;11.02;5.78;;;;;;;30.97;40.16;100046.91;4998336;28;20030;-78
2021/07/06 11:17:54;;;;;;;7.50;5.20;;;;;;;31.18;40.39;100051.34;5006356;28;20025;-78
2021/07/06 11:20:31;;;;;;;10.40;5.22;;;;;;;30.92;41.05;100039.19;5017048;28;20038;-77
2021/07/06 11:22:58;;;;;;;14.75;6.30;;;;;;;30.89;41.09;100035.91;4985935;28;20022;-77
2021/07/06 11:25:35;;;;;;;8.98;5.53;;;;;;;31.47;40.91;100033.25;5012219;28;20040;-88
2021/07/06 11:28:02;;;;;;;7.90;5.68;;;;;;;31.71;40.08;100029.22;5001817;28;20607;-89